createdAt,value
2023-03-28T00:01:33.663Z,96156.03
2023-03-28T00:04:03.167Z,96155.56
2023-03-28T00:06:34.003Z,96156.16
2023-03-28T00:09:03.464Z,96159.44
2023-03-28T00:11:33.503Z,96160.13
2023-03-28T00:14:03.513Z,96158.38
2023-03-28T00:16:39.381Z,96162.66
2023-03-28T00:19:16.785Z,96169.59
2023-03-28T00:21:51.366Z,96166.56
2023-03-28T00:24:22.354Z,96165.13
2023-03-28T00:26:54.913Z,96172.22
2023-03-28T00:29:26.161Z,96173.16
2023-03-28T00:31:55.564Z,96176.38
2023-03-28T00:34:25.668Z,96178.78
2023-03-28T00:36:56.931Z,96186.44
2023-03-28T00:39:27.726Z,96186.00
2023-03-28T00:41:57.982Z,96195.28
2023-03-28T00:44:56.198Z,96197.22
2023-03-28T00:47:40.939Z,96189.09
2023-03-28T00:50:20.128Z,96185.06
2023-03-28T00:52:56.658Z,96187.56
2023-03-28T00:55:32.444Z,96180.66
2023-03-28T00:58:02.139Z,96183.09
2023-03-28T01:00:32.908Z,96179.81
2023-03-28T01:03:06.728Z,96177.81
2023-03-28T01:05:37.459Z,96178.63
2023-03-28T01:08:14.986Z,96176.38
2023-03-28T01:10:46.366Z,96179.31
2023-03-28T01:13:21.048Z,96171.91
2023-03-28T01:15:52.072Z,96182.56
2023-03-28T01:18:26.739Z,96187.13
2023-03-28T01:21:54.870Z,96198.84
2023-03-28T01:25:19.843Z,96195.47
2023-03-28T01:27:54.468Z,96191.09
2023-03-28T01:31:08.672Z,96193.66
2023-03-28T01:34:54.745Z,96204.09
2023-03-28T01:37:40.999Z,96199.88
2023-03-28T01:40:31.440Z,96203.09
2023-03-28T01:43:26.024Z,96208.56
2023-03-28T01:46:03.380Z,96220.03
2023-03-28T01:48:52.058Z,96219.22
2023-03-28T01:51:38.128Z,96211.66
2023-03-28T01:54:18.005Z,96212.38
2023-03-28T01:56:54.670Z,96213.84
2023-03-28T01:59:39.272Z,96218.56
2023-03-28T02:02:43.089Z,96219.03
2023-03-28T02:05:31.769Z,96223.69
2023-03-28T02:08:05.180Z,96225.63
2023-03-28T02:10:51.407Z,96227.44
2023-03-28T02:13:45.975Z,96233.25
2023-03-28T02:16:50.012Z,96237.81
2023-03-28T02:19:50.547Z,96240.63
2023-03-28T02:22:37.223Z,96238.81
2023-03-28T02:25:19.638Z,96247.81
2023-03-28T02:28:06.807Z,96249.13
2023-03-28T02:30:40.614Z,96247.13
2023-03-28T02:33:39.059Z,96251.13
2023-03-28T02:36:33.614Z,96244.47
2023-03-28T02:39:48.214Z,96247.66
2023-03-28T02:43:08.606Z,96254.41
2023-03-28T02:46:12.064Z,96249.81
2023-03-28T02:49:47.288Z,96251.19
2023-03-28T02:52:35.036Z,96258.75
2023-03-28T02:55:17.483Z,96257.47
2023-03-28T02:58:13.358Z,96254.13
2023-03-28T03:00:42.930Z,96256.75
2023-03-28T03:03:14.092Z,96253.66
2023-03-28T03:05:45.292Z,96262.69
2023-03-28T03:08:15.188Z,96261.38
2023-03-28T03:10:44.610Z,96264.38
2023-03-28T03:13:14.043Z,96264.44
2023-03-28T03:15:43.747Z,96259.34
2023-03-28T03:18:22.910Z,96270.09
2023-03-28T03:20:54.800Z,96272.03
2023-03-28T03:23:24.272Z,96270.91
2023-03-28T03:25:57.254Z,96269.09
2023-03-28T03:28:36.836Z,96276.47
2023-03-28T03:31:08.623Z,96267.97
2023-03-28T03:34:01.912Z,96280.91
2023-03-28T03:36:36.650Z,96272.81
2023-03-28T03:39:09.232Z,96274.25
2023-03-28T03:41:39.300Z,96274.34
2023-03-28T03:44:09.209Z,96285.56
2023-03-28T03:46:39.343Z,96280.75
2023-03-28T03:49:10.868Z,96289.66
2023-03-28T03:51:41.980Z,96282.91
2023-03-28T03:54:11.654Z,96284.72
2023-03-28T03:56:42.296Z,96282.63
2023-03-28T03:59:13.224Z,96286.91
2023-03-28T04:01:43.945Z,96291.41
2023-03-28T04:04:33.701Z,96291.41
2023-03-28T04:07:10.725Z,96293.69
2023-03-28T04:09:40.547Z,96301.97
2023-03-28T04:12:12.584Z,96303.97
2023-03-28T04:15:10.127Z,96303.66
2023-03-28T04:17:41.350Z,96305.25
2023-03-28T04:20:15.355Z,96304.91
2023-03-28T04:23:06.033Z,96306.94
2023-03-28T04:25:36.876Z,96301.84
2023-03-28T04:28:16.104Z,96313.34
2023-03-28T04:31:12.060Z,96317.50
2023-03-28T04:34:00.319Z,96315.50
2023-03-28T04:36:31.402Z,96315.19
2023-03-28T04:39:05.988Z,96320.88
2023-03-28T04:42:14.254Z,96320.06
2023-03-28T04:45:17.920Z,96331.28
2023-03-28T04:47:49.781Z,96341.16
2023-03-28T04:50:21.613Z,96335.91
2023-03-28T04:52:51.088Z,96330.78
2023-03-28T04:55:21.848Z,96334.59
2023-03-28T04:57:52.630Z,96338.88
2023-03-28T05:00:25.457Z,96339.69
2023-03-28T05:03:14.456Z,96333.78
2023-03-28T05:05:58.039Z,96342.34
2023-03-28T05:08:27.764Z,96345.28
2023-03-28T05:10:58.886Z,96344.63
2023-03-28T05:13:29.307Z,96354.22
2023-03-28T05:16:12.903Z,96351.91
2023-03-28T05:19:01.607Z,96355.22
2023-03-28T05:21:51.033Z,96359.97
2023-03-28T05:24:20.723Z,96358.31
2023-03-28T05:26:51.549Z,96351.25
2023-03-28T05:29:25.747Z,96358.00
2023-03-28T05:31:55.819Z,96355.84
2023-03-28T05:34:30.491Z,96362.75
2023-03-28T05:37:00.412Z,96368.31
2023-03-28T05:39:32.998Z,96381.66
2023-03-28T05:42:08.816Z,96377.19
2023-03-28T05:44:40.741Z,96375.69
2023-03-28T05:47:28.976Z,96381.78
2023-03-28T05:50:00.451Z,96377.84
2023-03-28T05:52:29.933Z,96390.69
2023-03-28T05:54:59.469Z,96380.09
2023-03-28T05:57:30.246Z,96391.16
2023-03-28T05:59:59.822Z,96394.41
2023-03-28T06:02:30.935Z,96400.03
2023-03-28T06:05:00.477Z,96395.38
2023-03-28T06:07:41.408Z,96394.22
2023-03-28T06:10:15.550Z,96398.50
2023-03-28T06:12:56.169Z,96401.72
2023-03-28T06:15:26.308Z,96400.00
2023-03-28T06:17:55.997Z,96397.75
2023-03-28T06:20:26.069Z,96403.59
2023-03-28T06:22:57.466Z,96413.59
2023-03-28T06:25:26.986Z,96419.78
2023-03-28T06:27:58.088Z,96411.28
2023-03-28T06:30:27.689Z,96410.28
2023-03-28T06:32:57.445Z,96416.88
2023-03-28T06:35:27.380Z,96413.78
2023-03-28T06:37:56.889Z,96421.78
2023-03-28T06:40:29.020Z,96428.59
2023-03-28T06:43:00.623Z,96425.91
2023-03-28T06:45:50.429Z,96431.66
2023-03-28T06:48:20.901Z,96434.75
2023-03-28T06:51:16.434Z,96439.69
2023-03-28T06:53:48.047Z,96441.97
2023-03-28T06:56:19.761Z,96442.28
2023-03-28T06:58:50.827Z,96443.00
2023-03-28T07:01:25.739Z,96450.56
2023-03-28T07:04:21.597Z,96445.84
2023-03-28T07:06:51.065Z,96443.00
2023-03-28T07:09:20.607Z,96445.75
2023-03-28T07:11:56.600Z,96447.09
2023-03-28T07:14:28.188Z,96453.13
2023-03-28T07:16:57.797Z,96454.22
2023-03-28T07:19:28.983Z,96459.78
2023-03-28T07:21:58.578Z,96462.53
2023-03-28T07:24:28.598Z,96467.06
2023-03-28T07:29:39.617Z,96479.28
2023-03-28T07:32:09.153Z,96476.28
2023-03-28T07:34:38.970Z,96484.47
2023-03-28T07:37:11.182Z,96481.06
2023-03-28T07:39:56.491Z,96490.22
2023-03-28T07:42:28.729Z,96497.16
2023-03-28T07:44:59.544Z,96504.38
2023-03-28T07:47:31.188Z,96498.97
2023-03-28T07:50:00.636Z,96502.88
2023-03-28T07:52:30.346Z,96497.81
2023-03-28T07:55:00.040Z,96501.38
2023-03-28T07:57:30.607Z,96504.38
2023-03-28T08:00:18.672Z,96506.00
2023-03-28T08:03:05.866Z,96505.31
2023-03-28T08:05:37.555Z,96518.91
2023-03-28T08:08:09.209Z,96517.50
2023-03-28T08:10:38.764Z,96517.53
2023-03-28T08:13:08.246Z,96518.66
2023-03-28T08:15:39.220Z,96512.00
2023-03-28T08:18:09.134Z,96517.38
2023-03-28T08:20:40.232Z,96518.59
2023-03-28T08:23:15.915Z,96525.34
2023-03-28T08:25:45.419Z,96521.22
2023-03-28T08:28:17.752Z,96521.06
2023-03-28T08:30:48.824Z,96525.59
2023-03-28T08:33:18.284Z,96532.84
2023-03-28T08:35:48.221Z,96532.28
2023-03-28T08:38:21.279Z,96529.25
2023-03-28T08:41:03.361Z,96529.91
2023-03-28T08:44:16.997Z,96538.72
2023-03-28T08:46:54.327Z,96529.09
2023-03-28T08:49:24.315Z,96533.88
2023-03-28T08:51:59.534Z,96534.53
2023-03-28T08:54:38.792Z,96530.94
2023-03-28T08:57:17.568Z,96533.84
2023-03-28T08:59:59.984Z,96535.50
2023-03-28T09:02:33.336Z,96533.31
2023-03-28T09:07:47.500Z,96531.69
2023-03-28T09:10:28.744Z,96524.50
2023-03-28T09:13:26.995Z,96530.81
2023-03-28T09:16:31.713Z,96530.78
2023-03-28T09:19:47.859Z,96531.44
2023-03-28T09:23:19.789Z,96524.47
2023-03-28T09:26:14.087Z,96530.81
2023-03-28T09:28:53.941Z,96528.38
2023-03-28T09:31:31.064Z,96525.94
2023-03-28T09:34:03.699Z,96521.06
2023-03-28T09:36:49.551Z,96527.66
2023-03-28T09:39:32.651Z,96528.22
2023-03-28T09:42:12.233Z,96524.31
2023-03-28T09:45:05.787Z,96535.00
2023-03-28T09:47:54.166Z,96530.28
2023-03-28T09:50:27.677Z,96528.66
2023-03-28T09:53:01.540Z,96532.56
2023-03-28T09:55:32.467Z,96523.75
2023-03-28T09:58:07.143Z,96531.34
2023-03-28T10:00:57.035Z,96533.38
2023-03-28T10:03:54.867Z,96528.84
2023-03-28T10:06:40.622Z,96538.66
2023-03-28T10:09:20.055Z,96538.84
2023-03-28T10:12:10.072Z,96532.66
2023-03-28T10:14:47.079Z,96533.13
2023-03-28T10:17:42.278Z,96537.06
2023-03-28T10:20:21.476Z,96533.59
2023-03-28T10:22:57.138Z,96533.19
2023-03-28T10:25:37.727Z,96527.44
2023-03-28T10:28:14.123Z,96527.25
2023-03-28T10:30:44.152Z,96535.41
2023-03-28T10:33:33.115Z,96525.78
2023-03-28T10:36:32.607Z,96527.38
2023-03-28T10:39:24.168Z,96529.59
2023-03-28T10:42:15.382Z,96528.00
2023-03-28T10:45:01.670Z,96529.06
2023-03-28T10:47:35.204Z,96529.69
2023-03-28T10:50:22.081Z,96525.41
2023-03-28T10:53:10.441Z,96534.81
2023-03-28T10:56:01.579Z,96522.28
2023-03-28T10:58:59.503Z,96534.38
2023-03-28T11:01:48.011Z,96525.53
2023-03-28T11:04:39.553Z,96512.97
2023-03-28T11:07:18.050Z,96520.97
2023-03-28T11:10:17.046Z,96525.00
2023-03-28T11:13:17.312Z,96512.38
2023-03-28T11:16:00.736Z,96511.16
2023-03-28T11:19:01.804Z,96503.31
2023-03-28T11:21:48.426Z,96497.00
2023-03-28T11:24:32.590Z,96502.19
2023-03-28T11:27:25.522Z,96495.91
2023-03-28T11:30:21.439Z,96505.50
2023-03-28T11:33:16.620Z,96502.09
2023-03-28T11:35:51.165Z,96509.16
2023-03-28T11:38:26.244Z,96503.94
2023-03-28T11:41:04.301Z,96501.13
2023-03-28T11:44:02.368Z,96494.16
2023-03-28T11:46:36.889Z,96492.34
2023-03-28T11:49:20.717Z,96485.59
2023-03-28T11:52:02.524Z,96484.72
2023-03-28T11:54:39.819Z,96483.03
2023-03-28T11:57:20.813Z,96474.50
2023-03-28T12:00:02.541Z,96475.97
2023-03-28T12:02:48.721Z,96473.69
2023-03-28T12:05:30.705Z,96461.50
2023-03-28T12:08:09.346Z,96462.97
2023-03-28T12:10:43.263Z,96456.19
2023-03-28T12:13:45.568Z,96452.44
2023-03-28T12:16:23.963Z,96452.94
2023-03-28T12:19:00.185Z,96447.94
2023-03-28T12:22:01.539Z,96445.75
2023-03-28T12:24:52.510Z,96447.06
2023-03-28T12:27:43.938Z,96434.78
2023-03-28T12:30:26.504Z,96429.06
2023-03-28T12:33:14.060Z,96428.25
2023-03-28T12:36:00.542Z,96435.53
2023-03-28T12:38:39.986Z,96432.69
2023-03-28T12:41:29.071Z,96432.25
2023-03-28T12:44:04.561Z,96431.69
2023-03-28T12:46:48.077Z,96428.31
2023-03-28T12:49:33.811Z,96430.41
2023-03-28T12:52:13.493Z,96428.31
2023-03-28T12:55:01.601Z,96418.94
2023-03-28T12:57:48.395Z,96424.00
2023-03-28T13:00:48.079Z,96417.50
2023-03-28T13:03:51.263Z,96420.31
2023-03-28T13:06:40.227Z,96415.22
2023-03-28T13:09:51.541Z,96417.69
2023-03-28T13:12:41.608Z,96410.06
2023-03-28T13:15:33.818Z,96406.13
2023-03-28T13:18:32.633Z,96401.69
2023-03-28T13:21:07.183Z,96398.22
2023-03-28T13:23:47.650Z,96386.78
2023-03-28T13:26:17.134Z,96386.69
2023-03-28T13:28:51.593Z,96389.81
2023-03-28T13:31:24.302Z,96391.03
2023-03-28T13:34:01.425Z,96383.09
2023-03-28T13:36:33.444Z,96378.16
2023-03-28T13:39:24.937Z,96374.69
2023-03-28T13:42:01.409Z,96375.19
2023-03-28T13:44:43.275Z,96370.47
2023-03-28T13:47:26.966Z,96370.56
2023-03-28T13:50:06.084Z,96358.44
2023-03-28T13:52:35.618Z,96346.28
2023-03-28T13:55:20.966Z,96350.94
2023-03-28T13:57:51.364Z,96346.97
2023-03-28T14:00:26.701Z,96347.03
2023-03-28T14:03:04.727Z,96345.00
2023-03-28T14:05:35.941Z,96341.25
2023-03-28T14:08:25.327Z,96353.88
2023-03-28T14:10:56.876Z,96346.72
2023-03-28T14:13:30.108Z,96340.69
2023-03-28T14:16:00.761Z,96348.00
2023-03-28T14:18:36.265Z,96340.91
2023-03-28T14:21:07.603Z,96342.47
2023-03-28T14:23:40.203Z,96337.03
2023-03-28T14:26:19.990Z,96342.88
2023-03-28T14:28:52.242Z,96347.97
2023-03-28T14:31:38.296Z,96343.03
2023-03-28T14:34:23.879Z,96340.63
2023-03-28T14:37:00.894Z,96342.91
2023-03-28T14:39:33.875Z,96341.69
2023-03-28T14:42:07.405Z,96337.72
2023-03-28T14:44:42.212Z,96338.44
2023-03-28T14:47:18.380Z,96334.38
2023-03-28T14:49:48.066Z,96335.66
2023-03-28T14:52:30.167Z,96328.88
2023-03-28T14:55:01.647Z,96324.66
2023-03-28T14:57:31.713Z,96327.41
2023-03-28T15:00:01.869Z,96327.41
2023-03-28T15:02:36.758Z,96317.97
2023-03-28T15:05:11.049Z,96310.94
2023-03-28T15:07:42.128Z,96316.91
2023-03-28T15:10:22.809Z,96303.69
2023-03-28T15:13:05.368Z,96306.56
2023-03-28T15:15:38.532Z,96308.03
2023-03-28T15:18:12.495Z,96308.78
2023-03-28T15:20:45.930Z,96302.66
2023-03-28T15:23:22.070Z,96301.28
2023-03-28T15:25:52.307Z,96304.13
2023-03-28T15:28:22.035Z,96298.56
2023-03-28T15:30:51.700Z,96302.00
2023-03-28T15:33:26.059Z,96296.22
2023-03-28T15:36:08.281Z,96292.19
2023-03-28T15:38:41.136Z,96290.41
2023-03-28T15:41:20.083Z,96282.06
2023-03-28T15:44:13.189Z,96289.00
2023-03-28T15:46:42.685Z,96271.53
2023-03-28T15:49:13.844Z,96281.88
2023-03-28T15:51:52.521Z,96271.00
2023-03-28T15:54:31.309Z,96269.47
2023-03-28T15:57:03.612Z,96271.66
2023-03-28T15:59:39.217Z,96263.13
2023-03-28T16:02:37.154Z,96267.16
2023-03-28T16:05:28.682Z,96267.50
2023-03-28T16:07:58.193Z,96271.47
2023-03-28T16:10:27.750Z,96265.00
2023-03-28T16:13:23.161Z,96271.38
2023-03-28T16:16:25.172Z,96264.97
2023-03-28T16:19:06.291Z,96269.19
2023-03-28T16:21:37.114Z,96264.84
2023-03-28T16:24:07.159Z,96275.25
2023-03-28T16:26:36.705Z,96264.97
2023-03-28T16:29:06.306Z,96264.88
2023-03-28T16:31:36.065Z,96265.72
2023-03-28T16:34:08.527Z,96275.78
2023-03-28T16:36:40.814Z,96275.66
2023-03-28T16:39:12.049Z,96271.09
2023-03-28T16:41:41.495Z,96271.00
2023-03-28T16:44:11.878Z,96268.31
2023-03-28T16:46:41.582Z,96259.81
2023-03-28T16:49:11.324Z,96259.59
2023-03-28T16:51:42.153Z,96265.63
2023-03-28T16:54:11.721Z,96262.63
2023-03-28T16:56:41.409Z,96269.66
2023-03-28T16:59:11.892Z,96271.16
2023-03-28T17:01:42.966Z,96270.44
2023-03-28T17:04:12.516Z,96265.84
2023-03-28T17:06:43.311Z,96253.59
2023-03-28T17:09:13.221Z,96255.56
2023-03-28T17:11:42.898Z,96248.09
2023-03-28T17:14:12.289Z,96250.94
2023-03-28T17:16:41.826Z,96244.50
2023-03-28T17:19:11.224Z,96245.03
2023-03-28T17:21:42.003Z,96246.63
2023-03-28T17:24:11.637Z,96248.19
2023-03-28T17:26:41.245Z,96245.53
2023-03-28T17:29:11.935Z,96240.69
2023-03-28T17:31:41.815Z,96242.84
2023-03-28T17:34:12.708Z,96242.91
2023-03-28T17:36:44.238Z,96234.16
2023-03-28T17:39:13.712Z,96242.66
2023-03-28T17:41:43.147Z,96232.09
2023-03-28T17:44:12.639Z,96232.41
2023-03-28T17:46:44.560Z,96232.75
2023-03-28T17:49:15.222Z,96230.84
2023-03-28T17:51:47.983Z,96241.16
2023-03-28T17:54:17.916Z,96231.00
2023-03-28T17:56:47.434Z,96231.03
2023-03-28T17:59:17.233Z,96223.47
2023-03-28T18:01:46.753Z,96221.66
2023-03-28T18:04:17.522Z,96217.38
2023-03-28T18:07:15.924Z,96220.72
2023-03-28T18:09:46.358Z,96216.66
2023-03-28T18:12:17.468Z,96210.78
2023-03-28T18:14:48.355Z,96211.22
2023-03-28T18:17:19.754Z,96209.22
2023-03-28T18:19:49.204Z,96213.16
2023-03-28T18:22:20.137Z,96217.25
2023-03-28T18:24:49.545Z,96221.38
2023-03-28T18:27:18.989Z,96220.19
2023-03-28T18:29:49.481Z,96215.47
2023-03-28T18:32:18.868Z,96217.94
2023-03-28T18:34:48.293Z,96217.97
2023-03-28T18:37:19.087Z,96205.28
2023-03-28T18:39:48.800Z,96205.06
2023-03-28T18:42:18.282Z,96206.31
2023-03-28T18:44:48.742Z,96201.59
2023-03-28T18:47:18.182Z,96203.41
2023-03-28T18:49:47.573Z,96195.44
2023-03-28T18:52:17.198Z,96202.38
2023-03-28T18:54:49.201Z,96195.22
2023-03-28T18:57:18.743Z,96195.78
2023-03-28T18:59:48.346Z,96195.16
2023-03-28T19:02:17.799Z,96195.53
2023-03-28T19:04:47.626Z,96194.06
2023-03-28T19:07:18.880Z,96180.75
2023-03-28T19:09:50.151Z,96187.72
2023-03-28T19:12:19.541Z,96181.75
2023-03-28T19:14:50.153Z,96183.34
2023-03-28T19:17:19.728Z,96178.44
2023-03-28T19:19:49.157Z,96185.38
2023-03-28T19:22:18.525Z,96180.03
2023-03-28T19:24:49.303Z,96181.00
2023-03-28T19:27:18.745Z,96163.22
2023-03-28T19:29:48.271Z,96171.56
2023-03-28T19:32:18.008Z,96150.16
2023-03-28T19:34:47.495Z,96147.06
2023-03-28T19:37:16.950Z,96153.97
2023-03-28T19:39:46.351Z,96159.03
2023-03-28T19:42:18.096Z,96159.78
2023-03-28T19:44:47.531Z,96166.28
2023-03-28T19:47:16.954Z,96164.25
2023-03-28T19:49:46.350Z,96161.56
2023-03-28T19:52:15.848Z,96153.16
2023-03-28T19:54:45.275Z,96158.22
2023-03-28T19:57:16.095Z,96156.97
2023-03-28T19:59:45.724Z,96144.09
2023-03-28T20:02:15.466Z,96140.22
2023-03-28T20:04:44.907Z,96149.56
2023-03-28T20:07:14.403Z,96146.69
2023-03-28T20:09:48.641Z,96139.31
2023-03-28T20:12:20.770Z,96134.19
2023-03-28T20:14:50.144Z,96133.19
2023-03-28T20:17:19.763Z,96130.72
2023-03-28T20:19:51.477Z,96116.66
2023-03-28T20:22:24.321Z,96119.94
2023-03-28T20:24:53.784Z,96120.56
2023-03-28T20:27:25.048Z,96125.88
2023-03-28T20:29:54.438Z,96132.19
2023-03-28T20:32:23.858Z,96132.56
2023-03-28T20:34:53.302Z,96133.56
2023-03-28T20:37:23.458Z,96123.78
2023-03-28T20:39:53.395Z,96134.19
2023-03-28T20:42:24.319Z,96131.34
2023-03-28T20:44:54.164Z,96124.22
2023-03-28T20:47:25.177Z,96126.88
2023-03-28T20:49:56.854Z,96128.09
2023-03-28T20:52:26.314Z,96128.09
2023-03-28T20:54:55.696Z,96128.72
2023-03-28T20:57:30.289Z,96125.88
2023-03-28T21:00:01.251Z,96123.03
2023-03-28T21:02:33.617Z,96110.84
2023-03-28T21:05:04.517Z,96110.69
2023-03-28T21:07:33.964Z,96110.09
2023-03-28T21:10:03.910Z,96096.88
2023-03-28T21:12:34.730Z,96093.44
2023-03-28T21:15:04.641Z,96082.06
2023-03-28T21:17:34.464Z,96084.78
2023-03-28T21:20:07.169Z,96093.75
2023-03-28T21:22:37.964Z,96083.97
2023-03-28T21:25:10.455Z,96086.41
2023-03-28T21:27:41.465Z,96087.66
2023-03-28T21:30:13.800Z,96089.09
2023-03-28T21:32:43.913Z,96089.53
2023-03-28T21:35:15.238Z,96085.47
2023-03-28T21:37:44.645Z,96074.50
2023-03-28T21:40:14.144Z,96068.38
2023-03-28T21:42:44.952Z,96065.13
2023-03-28T21:45:14.423Z,96057.41
2023-03-28T21:47:44.921Z,96047.22
2023-03-28T21:50:15.086Z,96057.22
2023-03-28T21:52:44.672Z,96054.19
2023-03-28T21:55:14.101Z,96052.78
2023-03-28T21:57:44.924Z,96049.91
2023-03-28T22:00:17.221Z,96042.34
2023-03-28T22:02:46.677Z,96033.81
2023-03-28T22:05:28.609Z,96035.25
2023-03-28T22:07:59.905Z,96032.19
2023-03-28T22:10:29.351Z,96037.28
2023-03-28T22:13:00.219Z,96039.94
2023-03-28T22:15:32.377Z,96032.00
2023-03-28T22:18:04.402Z,96032.81
2023-03-28T22:20:33.958Z,96034.44
2023-03-28T22:23:04.603Z,96029.94
2023-03-28T22:25:38.221Z,96035.28
2023-03-28T22:28:11.859Z,96029.78
2023-03-28T22:30:42.351Z,96031.19
2023-03-28T22:33:13.457Z,96024.84
2023-03-28T22:35:43.066Z,96029.97
2023-03-28T22:38:12.454Z,96031.19
2023-03-28T22:40:42.006Z,96026.69
2023-03-28T22:43:12.985Z,96033.66
2023-03-28T22:45:42.865Z,96032.63
2023-03-28T22:48:15.138Z,96031.41
2023-03-28T22:50:46.199Z,96040.81
2023-03-28T22:53:16.312Z,96033.84
2023-03-28T22:55:46.310Z,96038.16
2023-03-28T22:58:17.932Z,96034.88
2023-03-28T23:00:47.559Z,96034.06
2023-03-28T23:03:18.007Z,96037.75
2023-03-28T23:05:47.640Z,96033.44
2023-03-28T23:08:17.108Z,96038.94
2023-03-28T23:10:47.433Z,96042.63
2023-03-28T23:13:18.242Z,96037.94
2023-03-28T23:15:47.908Z,96023.06
2023-03-28T23:18:17.420Z,96040.19
2023-03-28T23:20:51.209Z,96036.09
2023-03-28T23:23:21.043Z,96043.44
2023-03-28T23:25:50.427Z,96027.13
2023-03-28T23:28:21.160Z,96028.56
2023-03-28T23:30:50.655Z,96028.78
2023-03-28T23:33:20.829Z,96035.31
2023-03-28T23:35:50.433Z,96053.25
2023-03-28T23:38:20.005Z,96056.72
2023-03-28T23:40:49.555Z,96067.13
2023-03-28T23:43:20.358Z,96075.31
2023-03-28T23:45:49.802Z,96073.47
2023-03-28T23:48:19.309Z,96077.16
2023-03-28T23:50:48.672Z,96091.66
2023-03-28T23:53:18.091Z,96099.22
2023-03-28T23:55:47.501Z,96083.06
2023-03-28T23:58:16.940Z,96092.47
